SWA258 KATL-KMDW
Flight info
| Callsign | SWA258 |
|---|---|
| Flight time | 1h 33m |
| Altitude | 38000 |
| Route | VARNM2 RESPE IIU DROSE FISSK7 |
| Aircraft | B738/M-SADE2E3GIJ4RWZ/LB1D1 |
Departure
| Time | 2026-05-01 09:40 |
|---|---|
| Airport | Hartsfield Jackson Atlanta International Airport (KATL) |
Arrival
| Time | 2026-05-01 11:13 |
|---|---|
| Airport | Chicago Midway International Airport (KMDW) |
| Time | Latitude | Longitude | Altitude | Speed | Heading |
|---|---|---|---|---|---|
| 2026-05-01 09:21 | 33.63982 | -84.43198 | 1005 ft | 0 kts | 275° |
| 2026-05-01 09:24 | 33.63978 | -84.43160 | 1005 ft | 2 kts | 282° |
| 2026-05-01 09:24 | 33.63973 | -84.43141 | 1005 ft | 2 kts | 301° |
| 2026-05-01 09:24 | 33.63954 | -84.43130 | 1005 ft | 0 kts | 360° |
| 2026-05-01 09:28 | 33.63956 | -84.43130 | 1005 ft | 1 kts | 360° |
| 2026-05-01 09:30 | 33.63970 | -84.43130 | 1005 ft | 3 kts | 360° |
| 2026-05-01 09:30 | 33.64057 | -84.43130 | 1005 ft | 9 kts | 360° |
| 2026-05-01 09:31 | 33.64126 | -84.43130 | 1005 ft | 11 kts | 360° |
| 2026-05-01 09:31 | 33.64210 | -84.43130 | 1005 ft | 13 kts | 360° |
| 2026-05-01 09:31 | 33.64412 | -84.43128 | 1006 ft | 16 kts | 12° |
| 2026-05-01 09:32 | 33.64500 | -84.43093 | 1006 ft | 13 kts | 11° |
| 2026-05-01 09:32 | 33.64542 | -84.42968 | 1006 ft | 10 kts | 86° |
| 2026-05-01 09:32 | 33.64543 | -84.42876 | 1005 ft | 12 kts | 90° |
| 2026-05-01 09:33 | 33.64542 | -84.42772 | 1005 ft | 14 kts | 89° |
| 2026-05-01 09:33 | 33.64542 | -84.42657 | 1005 ft | 14 kts | 89° |
| 2026-05-01 09:33 | 33.64542 | -84.42408 | 1005 ft | 16 kts | 90° |
| 2026-05-01 09:34 | 33.64543 | -84.42263 | 1005 ft | 18 kts | 90° |
| 2026-05-01 09:34 | 33.64542 | -84.42107 | 1005 ft | 19 kts | 90° |
| 2026-05-01 09:34 | 33.64541 | -84.41806 | 1004 ft | 19 kts | 90° |
| 2026-05-01 09:35 | 33.64543 | -84.41652 | 1006 ft | 18 kts | 90° |
| 2026-05-01 09:35 | 33.64542 | -84.41356 | 1006 ft | 17 kts | 90° |
| 2026-05-01 09:35 | 33.64541 | -84.41217 | 1006 ft | 17 kts | 90° |
| 2026-05-01 09:36 | 33.64541 | -84.41081 | 1006 ft | 16 kts | 90° |
| 2026-05-01 09:36 | 33.64541 | -84.40950 | 1005 ft | 16 kts | 89° |
| 2026-05-01 09:36 | 33.64549 | -84.40829 | 1005 ft | 13 kts | 66° |
| 2026-05-01 09:36 | 33.64627 | -84.40804 | 1004 ft | 13 kts | 353° |
| 2026-05-01 09:37 | 33.64678 | -84.40865 | 1005 ft | 0 kts | 275° |
| 2026-05-01 09:39 | 33.64679 | -84.41043 | 1006 ft | 61 kts | 269° |
| 2026-05-01 09:39 | 33.64680 | -84.41918 | 1006 ft | 147 kts | 272° |
| 2026-05-01 09:39 | 33.64717 | -84.43181 | 1246 ft | 194 kts | 274° |
| 2026-05-01 09:40 | 33.64808 | -84.44888 | 1903 ft | 220 kts | 278° |
| 2026-05-01 09:40 | 33.65671 | -84.48771 | 3308 ft | 260 kts | 295° |
| 2026-05-01 09:40 | 33.66423 | -84.50744 | 4504 ft | 259 kts | 294° |
| 2026-05-01 09:41 | 33.67178 | -84.52697 | 5638 ft | 257 kts | 294° |
| 2026-05-01 09:41 | 33.68856 | -84.56507 | 7712 ft | 262 kts | 311° |
| 2026-05-01 09:41 | 33.70384 | -84.57747 | 8727 ft | 271 kts | 333° |
| 2026-05-01 09:42 | 33.72260 | -84.58232 | 9679 ft | 284 kts | 352° |
| 2026-05-01 09:42 | 33.74260 | -84.58217 | 10532 ft | 291 kts | 355° |
| 2026-05-01 09:42 | 33.78367 | -84.58120 | 12162 ft | 302 kts | 354° |
| 2026-05-01 09:43 | 33.82667 | -84.58077 | 13618 ft | 322 kts | 353° |
| 2026-05-01 09:43 | 33.85006 | -84.58110 | 13815 ft | 347 kts | 353° |
| 2026-05-01 09:43 | 33.87501 | -84.58181 | 14036 ft | 368 kts | 353° |
| 2026-05-01 09:44 | 33.92725 | -84.58351 | 15375 ft | 379 kts | 351° |
| 2026-05-01 09:44 | 33.95360 | -84.58431 | 16218 ft | 380 kts | 351° |
| 2026-05-01 09:44 | 33.98016 | -84.58512 | 16956 ft | 384 kts | 350° |
| 2026-05-01 09:45 | 34.00384 | -84.58584 | 17593 ft | 387 kts | 349° |
| 2026-05-01 09:45 | 34.05779 | -84.58749 | 18872 ft | 394 kts | 348° |
| 2026-05-01 09:45 | 34.08411 | -84.58829 | 19393 ft | 398 kts | 348° |
| 2026-05-01 09:46 | 34.11201 | -84.58915 | 19934 ft | 404 kts | 348° |
| 2026-05-01 09:46 | 34.14085 | -84.59003 | 20417 ft | 411 kts | 348° |
| 2026-05-01 09:46 | 34.16954 | -84.59087 | 21007 ft | 413 kts | 348° |
| 2026-05-01 09:46 | 34.19836 | -84.59171 | 21588 ft | 416 kts | 348° |
| 2026-05-01 09:47 | 34.22732 | -84.59257 | 22104 ft | 420 kts | 348° |
| 2026-05-01 09:47 | 34.25663 | -84.59346 | 22614 ft | 424 kts | 347° |
| 2026-05-01 09:47 | 34.28630 | -84.59456 | 23123 ft | 425 kts | 345° |
| 2026-05-01 09:47 | 34.31544 | -84.59896 | 23609 ft | 419 kts | 339° |
| 2026-05-01 09:48 | 34.34391 | -84.60581 | 24040 ft | 417 kts | 336° |
| 2026-05-01 09:48 | 34.37225 | -84.61354 | 24558 ft | 416 kts | 335° |
| 2026-05-01 09:48 | 34.40057 | -84.62137 | 25066 ft | 417 kts | 335° |
| 2026-05-01 09:48 | 34.42888 | -84.62903 | 25527 ft | 418 kts | 336° |
| 2026-05-01 09:49 | 34.45742 | -84.63653 | 25949 ft | 421 kts | 336° |
| 2026-05-01 09:49 | 34.48586 | -84.64380 | 26366 ft | 423 kts | 336° |
| 2026-05-01 09:49 | 34.51505 | -84.65113 | 26795 ft | 425 kts | 336° |
| 2026-05-01 09:49 | 34.54375 | -84.65825 | 27209 ft | 426 kts | 336° |
| 2026-05-01 09:50 | 34.57281 | -84.66541 | 27631 ft | 427 kts | 336° |
| 2026-05-01 09:50 | 34.60241 | -84.67269 | 28049 ft | 428 kts | 336° |
| 2026-05-01 09:50 | 34.63154 | -84.67987 | 28445 ft | 431 kts | 336° |
| 2026-05-01 09:50 | 34.66114 | -84.68720 | 28714 ft | 435 kts | 336° |
| 2026-05-01 09:51 | 34.69042 | -84.69446 | 29046 ft | 437 kts | 336° |
| 2026-05-01 09:51 | 34.72059 | -84.70192 | 29419 ft | 438 kts | 336° |
| 2026-05-01 09:51 | 34.75004 | -84.70920 | 29778 ft | 439 kts | 336° |
| 2026-05-01 09:51 | 34.77988 | -84.71658 | 30176 ft | 438 kts | 336° |
| 2026-05-01 09:52 | 34.80968 | -84.72393 | 30630 ft | 436 kts | 336° |
| 2026-05-01 09:52 | 34.83979 | -84.73134 | 31155 ft | 431 kts | 335° |
| 2026-05-01 09:52 | 34.86868 | -84.73847 | 31638 ft | 428 kts | 335° |
| 2026-05-01 09:52 | 34.89789 | -84.74572 | 32081 ft | 427 kts | 335° |
| 2026-05-01 09:53 | 34.92693 | -84.75296 | 32481 ft | 426 kts | 334° |
| 2026-05-01 09:53 | 34.95587 | -84.76017 | 32959 ft | 422 kts | 334° |
| 2026-05-01 09:53 | 34.98454 | -84.76729 | 33463 ft | 419 kts | 334° |
| 2026-05-01 09:53 | 35.01278 | -84.77432 | 33917 ft | 416 kts | 333° |
| 2026-05-01 09:54 | 35.04106 | -84.78138 | 34267 ft | 414 kts | 333° |
| 2026-05-01 09:54 | 35.06935 | -84.78847 | 34575 ft | 414 kts | 333° |
| 2026-05-01 09:54 | 35.09760 | -84.79556 | 34889 ft | 413 kts | 333° |
| 2026-05-01 09:54 | 35.12569 | -84.80260 | 35206 ft | 412 kts | 333° |
| 2026-05-01 09:55 | 35.15343 | -84.80954 | 35605 ft | 410 kts | 333° |
| 2026-05-01 09:55 | 35.18120 | -84.81646 | 36000 ft | 406 kts | 333° |
| 2026-05-01 09:55 | 35.20885 | -84.82339 | 36298 ft | 406 kts | 333° |
| 2026-05-01 09:55 | 35.23662 | -84.83039 | 36535 ft | 407 kts | 333° |
| 2026-05-01 09:56 | 35.26428 | -84.83735 | 36827 ft | 406 kts | 333° |
| 2026-05-01 09:56 | 35.29204 | -84.84432 | 37157 ft | 405 kts | 333° |
| 2026-05-01 09:56 | 35.31965 | -84.85126 | 37446 ft | 404 kts | 333° |
| 2026-05-01 09:56 | 35.34712 | -84.85817 | 37694 ft | 404 kts | 332° |
| 2026-05-01 09:57 | 35.37472 | -84.86513 | 37961 ft | 403 kts | 333° |
| 2026-05-01 09:57 | 35.40228 | -84.87209 | 38065 ft | 407 kts | 332° |
| 2026-05-01 09:57 | 35.45784 | -84.88610 | 38043 ft | 405 kts | 332° |
| 2026-05-01 09:58 | 35.51215 | -84.89972 | 38045 ft | 398 kts | 332° |
| 2026-05-01 09:58 | 35.56625 | -84.91346 | 38043 ft | 397 kts | 332° |
| 2026-05-01 09:59 | 35.62036 | -84.92717 | 38039 ft | 396 kts | 332° |
| 2026-05-01 09:59 | 35.67433 | -84.94084 | 38044 ft | 397 kts | 332° |
| 2026-05-01 10:00 | 35.72848 | -84.95459 | 38029 ft | 397 kts | 332° |
| 2026-05-01 10:00 | 35.78265 | -84.96835 | 38019 ft | 397 kts | 332° |
| 2026-05-01 10:01 | 35.83643 | -84.98205 | 38073 ft | 397 kts | 332° |
| 2026-05-01 10:01 | 35.89101 | -84.99597 | 38051 ft | 399 kts | 332° |
| 2026-05-01 10:02 | 35.94276 | -85.00919 | 38048 ft | 400 kts | 332° |
| 2026-05-01 10:02 | 35.99739 | -85.02315 | 38052 ft | 401 kts | 332° |
| 2026-05-01 10:03 | 36.05196 | -85.03711 | 38057 ft | 402 kts | 332° |
| 2026-05-01 10:03 | 36.09792 | -85.04888 | 38054 ft | 402 kts | 332° |
| 2026-05-01 10:04 | 36.15288 | -85.06298 | 38100 ft | 403 kts | 332° |
| 2026-05-01 10:04 | 36.20767 | -85.07708 | 38055 ft | 405 kts | 332° |
| 2026-05-01 10:05 | 36.26288 | -85.09127 | 38051 ft | 405 kts | 332° |
| 2026-05-01 10:05 | 36.31809 | -85.10548 | 38047 ft | 405 kts | 332° |
| 2026-05-01 10:06 | 36.37328 | -85.11971 | 38059 ft | 405 kts | 332° |
| 2026-05-01 10:06 | 36.42840 | -85.13396 | 38086 ft | 405 kts | 333° |
| 2026-05-01 10:07 | 36.48357 | -85.14824 | 38053 ft | 404 kts | 333° |
| 2026-05-01 10:07 | 36.53815 | -85.16236 | 38059 ft | 403 kts | 332° |
| 2026-05-01 10:08 | 36.62039 | -85.18371 | 38063 ft | 401 kts | 332° |
| 2026-05-01 10:09 | 36.67511 | -85.19796 | 38100 ft | 401 kts | 332° |
| 2026-05-01 10:09 | 36.72984 | -85.21223 | 38077 ft | 401 kts | 332° |
| 2026-05-01 10:10 | 36.78417 | -85.22640 | 38068 ft | 401 kts | 332° |
| 2026-05-01 10:10 | 36.86601 | -85.24778 | 38072 ft | 399 kts | 332° |
| 2026-05-01 10:11 | 36.92047 | -85.26205 | 38095 ft | 399 kts | 332° |
| 2026-05-01 10:11 | 36.97467 | -85.27628 | 38065 ft | 400 kts | 332° |
| 2026-05-01 10:12 | 37.02931 | -85.29063 | 38069 ft | 400 kts | 332° |
| 2026-05-01 10:13 | 37.11109 | -85.31215 | 38066 ft | 401 kts | 332° |
| 2026-05-01 10:13 | 37.16533 | -85.32645 | 38130 ft | 401 kts | 332° |
| 2026-05-01 10:14 | 37.24764 | -85.34819 | 38064 ft | 402 kts | 333° |
| 2026-05-01 10:14 | 37.30243 | -85.36267 | 38065 ft | 402 kts | 332° |
| 2026-05-01 10:15 | 37.35690 | -85.37709 | 38060 ft | 402 kts | 332° |
| 2026-05-01 10:15 | 37.41159 | -85.39160 | 38116 ft | 401 kts | 332° |
| 2026-05-01 10:16 | 37.46619 | -85.40611 | 38065 ft | 400 kts | 332° |
| 2026-05-01 10:17 | 37.54764 | -85.42776 | 38055 ft | 397 kts | 332° |
| 2026-05-01 10:17 | 37.62861 | -85.44936 | 38054 ft | 394 kts | 332° |
| 2026-05-01 10:18 | 37.70904 | -85.47090 | 38033 ft | 393 kts | 332° |
| 2026-05-01 10:19 | 37.76242 | -85.48520 | 38028 ft | 392 kts | 332° |
| 2026-05-01 10:19 | 37.81573 | -85.49951 | 38026 ft | 391 kts | 332° |
| 2026-05-01 10:20 | 37.89519 | -85.52090 | 38066 ft | 392 kts | 332° |
| 2026-05-01 10:20 | 37.94881 | -85.53537 | 38041 ft | 394 kts | 332° |
| 2026-05-01 10:21 | 38.02894 | -85.55699 | 38041 ft | 397 kts | 332° |
| 2026-05-01 10:22 | 38.11053 | -85.57879 | 38084 ft | 403 kts | 334° |
| 2026-05-01 10:23 | 38.19486 | -85.59543 | 38043 ft | 412 kts | 336° |
| 2026-05-01 10:23 | 38.28011 | -85.61118 | 38036 ft | 414 kts | 336° |
| 2026-05-01 10:24 | 38.39430 | -85.63301 | 38007 ft | 414 kts | 335° |
| 2026-05-01 10:25 | 38.50815 | -85.65501 | 38017 ft | 413 kts | 335° |
| 2026-05-01 10:26 | 38.56497 | -85.66603 | 38022 ft | 412 kts | 335° |
| 2026-05-01 10:27 | 38.67991 | -85.68851 | 38020 ft | 422 kts | 336° |
| 2026-05-01 10:28 | 38.76726 | -85.70548 | 38026 ft | 424 kts | 336° |
| 2026-05-01 10:28 | 38.85479 | -85.72254 | 38025 ft | 424 kts | 337° |
| 2026-05-01 10:29 | 38.94241 | -85.73969 | 38023 ft | 425 kts | 337° |
| 2026-05-01 10:30 | 39.05879 | -85.76255 | 38077 ft | 425 kts | 338° |
| 2026-05-01 10:31 | 39.17595 | -85.78565 | 38005 ft | 425 kts | 338° |
| 2026-05-01 10:32 | 39.26340 | -85.80292 | 38001 ft | 424 kts | 338° |
| 2026-05-01 10:33 | 39.36286 | -85.82263 | 38004 ft | 420 kts | 338° |
| 2026-05-01 10:33 | 39.41944 | -85.83372 | 37104 ft | 411 kts | 337° |
| 2026-05-01 10:34 | 39.44774 | -85.83940 | 36359 ft | 414 kts | 336° |
| 2026-05-01 10:34 | 39.47650 | -85.84522 | 35616 ft | 417 kts | 336° |
| 2026-05-01 10:34 | 39.50521 | -85.85101 | 34928 ft | 419 kts | 335° |
| 2026-05-01 10:35 | 39.56234 | -85.86233 | 34319 ft | 412 kts | 335° |
| 2026-05-01 10:35 | 39.59075 | -85.86799 | 34207 ft | 414 kts | 335° |
| 2026-05-01 10:35 | 39.61940 | -85.87377 | 34098 ft | 417 kts | 335° |
| 2026-05-01 10:35 | 39.64818 | -85.87959 | 34011 ft | 420 kts | 335° |
| 2026-05-01 10:36 | 39.73431 | -85.89682 | 33995 ft | 418 kts | 335° |
| 2026-05-01 10:37 | 39.79215 | -85.90845 | 33976 ft | 421 kts | 335° |
| 2026-05-01 10:37 | 39.87943 | -85.92603 | 33961 ft | 424 kts | 335° |
| 2026-05-01 10:38 | 39.93799 | -85.93783 | 33964 ft | 425 kts | 335° |
| 2026-05-01 10:38 | 39.99663 | -85.94969 | 33972 ft | 428 kts | 337° |
| 2026-05-01 10:39 | 40.05545 | -85.96160 | 33982 ft | 429 kts | 337° |
| 2026-05-01 10:39 | 40.11419 | -85.97350 | 33975 ft | 431 kts | 337° |
| 2026-05-01 10:40 | 40.17350 | -85.98556 | 33638 ft | 433 kts | 338° |
| 2026-05-01 10:40 | 40.20365 | -85.99169 | 32952 ft | 432 kts | 339° |
| 2026-05-01 10:40 | 40.23291 | -85.99763 | 32277 ft | 431 kts | 339° |
| 2026-05-01 10:41 | 40.25971 | -86.00309 | 31617 ft | 432 kts | 340° |
| 2026-05-01 10:41 | 40.28910 | -86.00909 | 30882 ft | 433 kts | 340° |
| 2026-05-01 10:41 | 40.34872 | -86.02123 | 29597 ft | 428 kts | 341° |
| 2026-05-01 10:42 | 40.37771 | -86.02712 | 28996 ft | 423 kts | 341° |
| 2026-05-01 10:42 | 40.40656 | -86.03300 | 28430 ft | 418 kts | 341° |
| 2026-05-01 10:42 | 40.43512 | -86.03885 | 27890 ft | 413 kts | 341° |
| 2026-05-01 10:42 | 40.45421 | -86.04278 | 27503 ft | 411 kts | 341° |
| 2026-05-01 10:43 | 40.48239 | -86.04858 | 26956 ft | 407 kts | 341° |
| 2026-05-01 10:43 | 40.51916 | -86.05608 | 26238 ft | 402 kts | 342° |
| 2026-05-01 10:43 | 40.53775 | -86.05866 | 25884 ft | 407 kts | 347° |
| 2026-05-01 10:43 | 40.56619 | -86.05862 | 25342 ft | 409 kts | 351° |
| 2026-05-01 10:44 | 40.59456 | -86.05735 | 24811 ft | 408 kts | 352° |
| 2026-05-01 10:44 | 40.62293 | -86.05607 | 24318 ft | 405 kts | 352° |
| 2026-05-01 10:44 | 40.65101 | -86.05514 | 23793 ft | 403 kts | 351° |
| 2026-05-01 10:44 | 40.67903 | -86.05445 | 23193 ft | 400 kts | 351° |
| 2026-05-01 10:45 | 40.70672 | -86.05384 | 22620 ft | 397 kts | 351° |
| 2026-05-01 10:45 | 40.73421 | -86.05322 | 22097 ft | 393 kts | 351° |
| 2026-05-01 10:45 | 40.76151 | -86.05259 | 21572 ft | 390 kts | 351° |
| 2026-05-01 10:45 | 40.78840 | -86.05198 | 21060 ft | 386 kts | 352° |
| 2026-05-01 10:46 | 40.81523 | -86.05137 | 20553 ft | 383 kts | 352° |
| 2026-05-01 10:46 | 40.84181 | -86.05077 | 20072 ft | 380 kts | 352° |
| 2026-05-01 10:46 | 40.86814 | -86.05018 | 19595 ft | 379 kts | 352° |
| 2026-05-01 10:46 | 40.89439 | -86.04958 | 19091 ft | 377 kts | 352° |
| 2026-05-01 10:47 | 40.92044 | -86.05057 | 18583 ft | 365 kts | 341° |
| 2026-05-01 10:47 | 40.94330 | -86.06213 | 18123 ft | 341 kts | 319° |
| 2026-05-01 10:47 | 40.96050 | -86.08162 | 17804 ft | 322 kts | 304° |
| 2026-05-01 10:47 | 40.97338 | -86.10527 | 17513 ft | 316 kts | 291° |
| 2026-05-01 10:48 | 40.98160 | -86.13255 | 17276 ft | 323 kts | 283° |
| 2026-05-01 10:48 | 40.98825 | -86.16132 | 17006 ft | 329 kts | 282° |
| 2026-05-01 10:48 | 40.99461 | -86.19041 | 16741 ft | 329 kts | 282° |
| 2026-05-01 10:48 | 41.00095 | -86.21937 | 16464 ft | 329 kts | 283° |
| 2026-05-01 10:49 | 41.00743 | -86.24856 | 16206 ft | 329 kts | 283° |
| 2026-05-01 10:49 | 41.01397 | -86.27764 | 15957 ft | 330 kts | 283° |
| 2026-05-01 10:49 | 41.02056 | -86.30675 | 15690 ft | 330 kts | 283° |
| 2026-05-01 10:49 | 41.02713 | -86.33567 | 15437 ft | 330 kts | 283° |
| 2026-05-01 10:50 | 41.03375 | -86.36474 | 15183 ft | 330 kts | 283° |
| 2026-05-01 10:50 | 41.04038 | -86.39396 | 14906 ft | 329 kts | 283° |
| 2026-05-01 10:50 | 41.04699 | -86.42279 | 14640 ft | 329 kts | 284° |
| 2026-05-01 10:50 | 41.05605 | -86.45100 | 14373 ft | 332 kts | 294° |
| 2026-05-01 10:51 | 41.06705 | -86.47747 | 14128 ft | 329 kts | 294° |
| 2026-05-01 10:51 | 41.07814 | -86.50400 | 13860 ft | 329 kts | 294° |
| 2026-05-01 10:51 | 41.08908 | -86.53044 | 13584 ft | 328 kts | 295° |
| 2026-05-01 10:51 | 41.09996 | -86.55699 | 13298 ft | 326 kts | 295° |
| 2026-05-01 10:52 | 41.11075 | -86.58334 | 13027 ft | 320 kts | 296° |
| 2026-05-01 10:52 | 41.12182 | -86.60859 | 12746 ft | 316 kts | 302° |
| 2026-05-01 10:52 | 41.13581 | -86.63129 | 12513 ft | 322 kts | 311° |
| 2026-05-01 10:52 | 41.15259 | -86.65143 | 12256 ft | 326 kts | 315° |
| 2026-05-01 10:53 | 41.16982 | -86.67094 | 11985 ft | 325 kts | 316° |
| 2026-05-01 10:53 | 41.18696 | -86.69024 | 11723 ft | 323 kts | 316° |
| 2026-05-01 10:53 | 41.20413 | -86.70963 | 11463 ft | 322 kts | 316° |
| 2026-05-01 10:53 | 41.22084 | -86.72858 | 11201 ft | 314 kts | 316° |
| 2026-05-01 10:54 | 41.23715 | -86.74714 | 10946 ft | 300 kts | 316° |
| 2026-05-01 10:54 | 41.25267 | -86.76486 | 10706 ft | 288 kts | 316° |
| 2026-05-01 10:54 | 41.26743 | -86.78176 | 10494 ft | 278 kts | 316° |
| 2026-05-01 10:54 | 41.28202 | -86.79850 | 10263 ft | 269 kts | 316° |
| 2026-05-01 10:55 | 41.29571 | -86.81423 | 10063 ft | 261 kts | 316° |
| 2026-05-01 10:55 | 41.30907 | -86.82960 | 9869 ft | 254 kts | 316° |
| 2026-05-01 10:55 | 41.32235 | -86.84491 | 9637 ft | 252 kts | 316° |
| 2026-05-01 10:55 | 41.33557 | -86.86014 | 9432 ft | 251 kts | 316° |
| 2026-05-01 10:56 | 41.34875 | -86.87532 | 9228 ft | 251 kts | 317° |
| 2026-05-01 10:56 | 41.36194 | -86.89052 | 9027 ft | 251 kts | 317° |
| 2026-05-01 10:56 | 41.37525 | -86.90587 | 8818 ft | 253 kts | 317° |
| 2026-05-01 10:56 | 41.38860 | -86.92128 | 8621 ft | 254 kts | 317° |
| 2026-05-01 10:57 | 41.40189 | -86.93669 | 8415 ft | 253 kts | 316° |
| 2026-05-01 10:57 | 41.41458 | -86.95204 | 8214 ft | 253 kts | 317° |
| 2026-05-01 10:57 | 41.42757 | -86.96792 | 8016 ft | 254 kts | 317° |
| 2026-05-01 10:57 | 41.44062 | -86.98384 | 7799 ft | 254 kts | 317° |
| 2026-05-01 10:58 | 41.45368 | -86.99982 | 7594 ft | 254 kts | 315° |
| 2026-05-01 10:58 | 41.46326 | -87.01675 | 7397 ft | 254 kts | 298° |
| 2026-05-01 10:58 | 41.47098 | -87.03785 | 7216 ft | 253 kts | 297° |
| 2026-05-01 10:58 | 41.47865 | -87.05899 | 6993 ft | 253 kts | 297° |
| 2026-05-01 10:59 | 41.48642 | -87.08000 | 6811 ft | 252 kts | 297° |
| 2026-05-01 10:59 | 41.49417 | -87.10070 | 6614 ft | 253 kts | 298° |
| 2026-05-01 10:59 | 41.50205 | -87.12165 | 6403 ft | 253 kts | 298° |
| 2026-05-01 10:59 | 41.50998 | -87.14268 | 6194 ft | 252 kts | 298° |
| 2026-05-01 11:00 | 41.51657 | -87.16420 | 6029 ft | 249 kts | 283° |
| 2026-05-01 11:00 | 41.51818 | -87.18708 | 5993 ft | 245 kts | 276° |
| 2026-05-01 11:00 | 41.51931 | -87.20988 | 5936 ft | 248 kts | 277° |
| 2026-05-01 11:00 | 41.52049 | -87.23311 | 5884 ft | 253 kts | 277° |
| 2026-05-01 11:01 | 41.52169 | -87.25659 | 5820 ft | 253 kts | 277° |
| 2026-05-01 11:01 | 41.52292 | -87.28003 | 5749 ft | 252 kts | 277° |
| 2026-05-01 11:01 | 41.52414 | -87.30323 | 5669 ft | 251 kts | 277° |
| 2026-05-01 11:01 | 41.52540 | -87.32644 | 5633 ft | 251 kts | 277° |
| 2026-05-01 11:02 | 41.52663 | -87.34943 | 5570 ft | 251 kts | 277° |
| 2026-05-01 11:02 | 41.52788 | -87.37273 | 5509 ft | 252 kts | 277° |
| 2026-05-01 11:02 | 41.52913 | -87.39610 | 5451 ft | 252 kts | 277° |
| 2026-05-01 11:02 | 41.53037 | -87.41918 | 5402 ft | 253 kts | 277° |
| 2026-05-01 11:03 | 41.53163 | -87.44258 | 5345 ft | 254 kts | 277° |
| 2026-05-01 11:03 | 41.53289 | -87.46617 | 5276 ft | 254 kts | 277° |
| 2026-05-01 11:03 | 41.53413 | -87.48962 | 5222 ft | 254 kts | 277° |
| 2026-05-01 11:03 | 41.53539 | -87.51312 | 5156 ft | 254 kts | 277° |
| 2026-05-01 11:04 | 41.53664 | -87.53670 | 5093 ft | 253 kts | 277° |
| 2026-05-01 11:04 | 41.53786 | -87.55997 | 5032 ft | 252 kts | 277° |
| 2026-05-01 11:04 | 41.53908 | -87.58325 | 4974 ft | 250 kts | 277° |
| 2026-05-01 11:04 | 41.54031 | -87.60617 | 4917 ft | 249 kts | 279° |
| 2026-05-01 11:05 | 41.54499 | -87.62795 | 4856 ft | 243 kts | 299° |
| 2026-05-01 11:05 | 41.55251 | -87.64780 | 4813 ft | 243 kts | 300° |
| 2026-05-01 11:05 | 41.56007 | -87.66786 | 4743 ft | 244 kts | 299° |
| 2026-05-01 11:05 | 41.56770 | -87.68832 | 4637 ft | 247 kts | 299° |
| 2026-05-01 11:06 | 41.57531 | -87.70895 | 4555 ft | 247 kts | 299° |
| 2026-05-01 11:06 | 41.58271 | -87.72913 | 4493 ft | 246 kts | 298° |
| 2026-05-01 11:06 | 41.59019 | -87.74964 | 4437 ft | 243 kts | 298° |
| 2026-05-01 11:07 | 41.60395 | -87.78762 | 4263 ft | 213 kts | 298° |
| 2026-05-01 11:07 | 41.61023 | -87.80495 | 4159 ft | 201 kts | 299° |
| 2026-05-01 11:07 | 41.61619 | -87.82144 | 4037 ft | 193 kts | 299° |
| 2026-05-01 11:07 | 41.62187 | -87.83715 | 4003 ft | 185 kts | 299° |
| 2026-05-01 11:08 | 41.62739 | -87.85245 | 4017 ft | 180 kts | 299° |
| 2026-05-01 11:08 | 41.63281 | -87.86746 | 4021 ft | 179 kts | 299° |
| 2026-05-01 11:08 | 41.64523 | -87.89501 | 4000 ft | 169 kts | 329° |
| 2026-05-01 11:09 | 41.65571 | -87.89997 | 3993 ft | 159 kts | 359° |
| 2026-05-01 11:09 | 41.66604 | -87.89483 | 3785 ft | 165 kts | 31° |
| 2026-05-01 11:09 | 41.67574 | -87.88631 | 3554 ft | 169 kts | 33° |
| 2026-05-01 11:10 | 41.69457 | -87.86669 | 3065 ft | 173 kts | 39° |
| 2026-05-01 11:10 | 41.70344 | -87.85567 | 2822 ft | 172 kts | 41° |
| 2026-05-01 11:10 | 41.71200 | -87.84484 | 2584 ft | 170 kts | 41° |
| 2026-05-01 11:10 | 41.72017 | -87.83443 | 2372 ft | 155 kts | 41° |
| 2026-05-01 11:11 | 41.72752 | -87.82504 | 2166 ft | 136 kts | 41° |
| 2026-05-01 11:11 | 41.73401 | -87.81677 | 1958 ft | 127 kts | 41° |
| 2026-05-01 11:11 | 41.74037 | -87.80870 | 1793 ft | 127 kts | 41° |
| 2026-05-01 11:11 | 41.74691 | -87.80038 | 1604 ft | 130 kts | 41° |
| 2026-05-01 11:12 | 41.75308 | -87.79265 | 1516 ft | 127 kts | 40° |
| 2026-05-01 11:12 | 41.75976 | -87.78471 | 1432 ft | 127 kts | 39° |
| 2026-05-01 11:12 | 41.76670 | -87.77636 | 1103 ft | 135 kts | 44° |
| 2026-05-01 11:12 | 41.77285 | -87.76733 | 822 ft | 132 kts | 45° |
| 2026-05-01 11:13 | 41.77913 | -87.75926 | 657 ft | 121 kts | 36° |
| 2026-05-01 11:13 | 41.78469 | -87.75255 | 629 ft | 92 kts | 46° |
| 2026-05-01 11:13 | 41.78751 | -87.74873 | 632 ft | 26 kts | 46° |
| 2026-05-01 11:13 | 41.78766 | -87.74814 | 633 ft | 1 kts | 116° |
| 2026-05-01 11:14 | 41.78762 | -87.74806 | 631 ft | 1 kts | 125° |
| 2026-05-01 11:14 | 41.78757 | -87.74798 | 637 ft | 1 kts | 132° |
| 2026-05-01 11:14 | 41.78752 | -87.74792 | 636 ft | 1 kts | 142° |
| 2026-05-01 11:14 | 41.78740 | -87.74790 | 634 ft | 2 kts | 172° |
| 2026-05-01 11:15 | 41.78725 | -87.74787 | 628 ft | 2 kts | 172° |
| 2026-05-01 11:15 | 41.78710 | -87.74785 | 632 ft | 2 kts | 172° |
| 2026-05-01 11:15 | 41.78695 | -87.74787 | 628 ft | 2 kts | 190° |
| 2026-05-01 11:15 | 41.78677 | -87.74788 | 631 ft | 3 kts | 180° |
| 2026-05-01 11:16 | 41.78658 | -87.74787 | 630 ft | 3 kts | 178° |
| 2026-05-01 11:16 | 41.78635 | -87.74785 | 632 ft | 4 kts | 174° |
| 2026-05-01 11:16 | 41.78603 | -87.74772 | 634 ft | 6 kts | 153° |
| 2026-05-01 11:16 | 41.78564 | -87.74723 | 628 ft | 10 kts | 133° |
| 2026-05-01 11:17 | 41.78504 | -87.74638 | 631 ft | 15 kts | 133° |
| 2026-05-01 11:17 | 41.78475 | -87.74597 | 628 ft | 3 kts | 129° |
| 2026-05-01 11:17 | 41.78477 | -87.74555 | 628 ft | 6 kts | 57° |
| 2026-05-01 11:17 | 41.78479 | -87.74552 | 628 ft | 0 kts | 56° |
| 2026-05-01 11:19 | 41.78478 | -87.74547 | 628 ft | 1 kts | 94° |
| 2026-05-01 11:19 | 41.78465 | -87.74523 | 628 ft | 6 kts | 130° |
| 2026-05-01 11:19 | 41.78445 | -87.74484 | 630 ft | 4 kts | 109° |
| 2026-05-01 11:20 | 41.78451 | -87.74449 | 628 ft | 4 kts | 73° |
| 2026-05-01 11:20 | 41.78456 | -87.74427 | 632 ft | 0 kts | 70° |
| 2026-05-01 11:20 | 41.78457 | -87.74423 | 633 ft | 1 kts | 70° |
| 2026-05-01 11:20 | 41.78458 | -87.74419 | 634 ft | 0 kts | 70° |